sensor_id;sensor_type;location;lat;lon;timestamp;P1;durP1;ratioP1;P2;durP2;ratioP2
5058;SDS011;2548;52.050;11.036;2023-04-25T00:00:02;6.80;;;5.30;;
5058;SDS011;2548;52.050;11.036;2023-04-25T00:02:37;7.82;;;5.85;;
5058;SDS011;2548;52.050;11.036;2023-04-25T00:05:05;13.23;;;6.05;;
5058;SDS011;2548;52.050;11.036;2023-04-25T00:07:33;8.30;;;5.85;;
5058;SDS011;2548;52.050;11.036;2023-04-25T00:10:02;9.15;;;5.88;;
5058;SDS011;2548;52.050;11.036;2023-04-25T00:12:30;9.02;;;6.03;;
5058;SDS011;2548;52.050;11.036;2023-04-25T00:14:59;7.40;;;6.38;;
5058;SDS011;2548;52.050;11.036;2023-04-25T00:17:26;16.92;;;5.93;;
5058;SDS011;2548;52.050;11.036;2023-04-25T00:19:54;8.05;;;6.28;;
5058;SDS011;2548;52.050;11.036;2023-04-25T00:22:21;9.07;;;5.47;;
5058;SDS011;2548;52.050;11.036;2023-04-25T00:24:49;8.13;;;5.47;;
5058;SDS011;2548;52.050;11.036;2023-04-25T00:27:20;6.85;;;5.45;;
5058;SDS011;2548;52.050;11.036;2023-04-25T00:29:47;14.85;;;5.60;;
5058;SDS011;2548;52.050;11.036;2023-04-25T00:32:15;11.35;;;6.13;;
5058;SDS011;2548;52.050;11.036;2023-04-25T00:34:42;10.63;;;4.80;;
5058;SDS011;2548;52.050;11.036;2023-04-25T00:37:10;7.32;;;5.57;;
5058;SDS011;2548;52.050;11.036;2023-04-25T00:39:38;11.07;;;5.57;;
5058;SDS011;2548;52.050;11.036;2023-04-25T00:42:05;9.35;;;5.65;;
5058;SDS011;2548;52.050;11.036;2023-04-25T00:44:36;8.75;;;5.63;;
5058;SDS011;2548;52.050;11.036;2023-04-25T00:47:04;10.80;;;5.90;;
5058;SDS011;2548;52.050;11.036;2023-04-25T00:49:31;8.05;;;5.57;;
5058;SDS011;2548;52.050;11.036;2023-04-25T00:51:59;9.00;;;5.35;;
5058;SDS011;2548;52.050;11.036;2023-04-25T00:54:27;10.23;;;5.88;;
5058;SDS011;2548;52.050;11.036;2023-04-25T00:56:57;7.68;;;5.18;;
5058;SDS011;2548;52.050;11.036;2023-04-25T00:59:26;9.30;;;5.57;;
5058;SDS011;2548;52.050;11.036;2023-04-25T01:01:56;12.02;;;6.40;;
5058;SDS011;2548;52.050;11.036;2023-04-25T01:04:25;14.90;;;6.55;;
5058;SDS011;2548;52.050;11.036;2023-04-25T01:06:54;17.52;;;6.15;;
5058;SDS011;2548;52.050;11.036;2023-04-25T01:09:22;7.55;;;5.18;;
5058;SDS011;2548;52.050;11.036;2023-04-25T01:11:50;15.15;;;7.03;;
5058;SDS011;2548;52.050;11.036;2023-04-25T01:14:17;20.48;;;6.50;;
5058;SDS011;2548;52.050;11.036;2023-04-25T01:16:46;6.82;;;5.22;;
5058;SDS011;2548;52.050;11.036;2023-04-25T01:19:16;8.30;;;5.90;;
5058;SDS011;2548;52.050;11.036;2023-04-25T01:21:47;6.60;;;5.97;;
5058;SDS011;2548;52.050;11.036;2023-04-25T01:24:15;13.48;;;6.68;;
5058;SDS011;2548;52.050;11.036;2023-04-25T01:26:43;8.63;;;4.60;;
5058;SDS011;2548;52.050;11.036;2023-04-25T01:29:18;8.82;;;5.60;;
5058;SDS011;2548;52.050;11.036;2023-04-25T01:31:46;16.58;;;6.40;;
5058;SDS011;2548;52.050;11.036;2023-04-25T01:34:14;13.02;;;5.72;;
5058;SDS011;2548;52.050;11.036;2023-04-25T01:36:41;12.48;;;6.00;;
5058;SDS011;2548;52.050;11.036;2023-04-25T01:39:10;7.75;;;6.10;;
5058;SDS011;2548;52.050;11.036;2023-04-25T01:41:38;10.23;;;5.72;;
5058;SDS011;2548;52.050;11.036;2023-04-25T01:44:06;8.98;;;6.05;;
5058;SDS011;2548;52.050;11.036;2023-04-25T01:46:33;16.15;;;4.85;;
5058;SDS011;2548;52.050;11.036;2023-04-25T01:49:01;12.20;;;5.78;;
5058;SDS011;2548;52.050;11.036;2023-04-25T01:51:29;14.80;;;5.55;;
5058;SDS011;2548;52.050;11.036;2023-04-25T01:53:58;15.45;;;6.85;;
5058;SDS011;2548;52.050;11.036;2023-04-25T01:56:30;15.55;;;7.93;;
5058;SDS011;2548;52.050;11.036;2023-04-25T01:58:59;13.85;;;5.28;;
5058;SDS011;2548;52.050;11.036;2023-04-25T02:01:55;15.63;;;6.85;;
5058;SDS011;2548;52.050;11.036;2023-04-25T02:04:27;12.82;;;5.70;;
5058;SDS011;2548;52.050;11.036;2023-04-25T02:06:55;11.48;;;6.82;;
5058;SDS011;2548;52.050;11.036;2023-04-25T02:09:29;13.18;;;6.38;;
5058;SDS011;2548;52.050;11.036;2023-04-25T02:11:58;11.68;;;6.72;;
5058;SDS011;2548;52.050;11.036;2023-04-25T02:14:25;12.70;;;6.32;;
5058;SDS011;2548;52.050;11.036;2023-04-25T02:17:14;14.70;;;7.10;;
5058;SDS011;2548;52.050;11.036;2023-04-25T02:19:42;20.15;;;6.32;;
5058;SDS011;2548;52.050;11.036;2023-04-25T02:22:09;10.20;;;5.65;;
5058;SDS011;2548;52.050;11.036;2023-04-25T02:24:37;7.13;;;6.30;;
5058;SDS011;2548;52.050;11.036;2023-04-25T02:27:06;13.15;;;6.65;;
5058;SDS011;2548;52.050;11.036;2023-04-25T02:29:34;10.25;;;5.95;;
5058;SDS011;2548;52.050;11.036;2023-04-25T02:32:02;18.27;;;6.75;;
5058;SDS011;2548;52.050;11.036;2023-04-25T02:34:30;12.32;;;7.05;;
5058;SDS011;2548;52.050;11.036;2023-04-25T02:37:00;15.90;;;5.65;;
5058;SDS011;2548;52.050;11.036;2023-04-25T02:39:27;15.43;;;6.80;;
5058;SDS011;2548;52.050;11.036;2023-04-25T02:41:55;14.40;;;6.13;;
5058;SDS011;2548;52.050;11.036;2023-04-25T02:44:24;11.35;;;6.13;;
5058;SDS011;2548;52.050;11.036;2023-04-25T02:46:51;17.50;;;5.97;;
5058;SDS011;2548;52.050;11.036;2023-04-25T02:49:19;10.30;;;6.55;;
5058;SDS011;2548;52.050;11.036;2023-04-25T02:51:46;11.38;;;6.43;;
5058;SDS011;2548;52.050;11.036;2023-04-25T02:54:14;10.90;;;6.57;;
5058;SDS011;2548;52.050;11.036;2023-04-25T02:56:45;14.50;;;6.38;;
5058;SDS011;2548;52.050;11.036;2023-04-25T02:59:18;12.20;;;6.10;;
5058;SDS011;2548;52.050;11.036;2023-04-25T03:01:47;17.30;;;5.57;;
5058;SDS011;2548;52.050;11.036;2023-04-25T03:04:15;21.13;;;6.57;;
5058;SDS011;2548;52.050;11.036;2023-04-25T03:06:44;10.95;;;6.30;;
5058;SDS011;2548;52.050;11.036;2023-04-25T03:09:12;19.50;;;7.95;;
5058;SDS011;2548;52.050;11.036;2023-04-25T03:11:39;15.95;;;7.28;;
5058;SDS011;2548;52.050;11.036;2023-04-25T03:14:07;12.55;;;6.50;;
5058;SDS011;2548;52.050;11.036;2023-04-25T03:16:34;14.88;;;6.70;;
5058;SDS011;2548;52.050;11.036;2023-04-25T03:19:03;10.38;;;6.97;;
5058;SDS011;2548;52.050;11.036;2023-04-25T03:21:32;14.85;;;7.35;;
5058;SDS011;2548;52.050;11.036;2023-04-25T03:24:01;14.52;;;8.18;;
5058;SDS011;2548;52.050;11.036;2023-04-25T03:26:30;10.30;;;6.88;;
5058;SDS011;2548;52.050;11.036;2023-04-25T03:28:57;13.70;;;7.50;;
5058;SDS011;2548;52.050;11.036;2023-04-25T03:31:25;15.63;;;7.18;;
5058;SDS011;2548;52.050;11.036;2023-04-25T03:33:52;15.68;;;6.90;;
5058;SDS011;2548;52.050;11.036;2023-04-25T03:36:23;11.38;;;7.63;;
5058;SDS011;2548;52.050;11.036;2023-04-25T03:38:50;9.80;;;6.45;;
5058;SDS011;2548;52.050;11.036;2023-04-25T03:41:20;10.98;;;7.70;;
5058;SDS011;2548;52.050;11.036;2023-04-25T03:43:52;15.63;;;10.05;;
5058;SDS011;2548;52.050;11.036;2023-04-25T03:46:20;18.00;;;7.35;;
5058;SDS011;2548;52.050;11.036;2023-04-25T03:48:48;17.98;;;8.48;;
5058;SDS011;2548;52.050;11.036;2023-04-25T03:51:22;17.05;;;8.10;;
5058;SDS011;2548;52.050;11.036;2023-04-25T03:53:51;23.55;;;8.88;;
5058;SDS011;2548;52.050;11.036;2023-04-25T03:56:19;11.70;;;8.07;;
5058;SDS011;2548;52.050;11.036;2023-04-25T03:58:52;15.70;;;7.88;;
5058;SDS011;2548;52.050;11.036;2023-04-25T04:01:22;21.88;;;8.40;;
5058;SDS011;2548;52.050;11.036;2023-04-25T04:03:50;16.20;;;8.05;;
5058;SDS011;2548;52.050;11.036;2023-04-25T04:06:18;17.40;;;8.98;;
5058;SDS011;2548;52.050;11.036;2023-04-25T04:08:51;16.35;;;9.10;;
5058;SDS011;2548;52.050;11.036;2023-04-25T04:11:18;14.65;;;10.20;;
5058;SDS011;2548;52.050;11.036;2023-04-25T04:13:46;26.27;;;11.73;;
5058;SDS011;2548;52.050;11.036;2023-04-25T04:16:14;12.98;;;8.60;;
5058;SDS011;2548;52.050;11.036;2023-04-25T04:18:41;18.10;;;10.32;;
5058;SDS011;2548;52.050;11.036;2023-04-25T04:21:09;21.92;;;9.98;;
5058;SDS011;2548;52.050;11.036;2023-04-25T04:23:39;10.90;;;8.85;;
5058;SDS011;2548;52.050;11.036;2023-04-25T04:26:09;31.55;;;9.73;;
5058;SDS011;2548;52.050;11.036;2023-04-25T04:28:56;19.88;;;10.57;;
5058;SDS011;2548;52.050;11.036;2023-04-25T04:31:39;14.15;;;7.88;;
5058;SDS011;2548;52.050;11.036;2023-04-25T04:34:07;15.00;;;8.88;;
5058;SDS011;2548;52.050;11.036;2023-04-25T04:36:35;19.55;;;9.13;;
5058;SDS011;2548;52.050;11.036;2023-04-25T04:39:04;25.35;;;8.35;;
5058;SDS011;2548;52.050;11.036;2023-04-25T04:41:38;10.52;;;7.85;;
5058;SDS011;2548;52.050;11.036;2023-04-25T04:44:30;11.07;;;7.18;;
5058;SDS011;2548;52.050;11.036;2023-04-25T04:47:23;9.60;;;7.15;;
5058;SDS011;2548;52.050;11.036;2023-04-25T04:50:23;8.93;;;8.02;;
5058;SDS011;2548;52.050;11.036;2023-04-25T04:53:12;15.57;;;7.80;;
5058;SDS011;2548;52.050;11.036;2023-04-25T04:56:00;12.38;;;8.80;;
5058;SDS011;2548;52.050;11.036;2023-04-25T04:58:47;20.73;;;10.27;;
5058;SDS011;2548;52.050;11.036;2023-04-25T05:01:29;18.63;;;9.35;;
5058;SDS011;2548;52.050;11.036;2023-04-25T05:04:04;11.57;;;9.45;;
5058;SDS011;2548;52.050;11.036;2023-04-25T05:06:41;14.43;;;8.13;;
5058;SDS011;2548;52.050;11.036;2023-04-25T05:09:32;10.25;;;6.80;;
5058;SDS011;2548;52.050;11.036;2023-04-25T05:12:12;23.65;;;7.85;;
5058;SDS011;2548;52.050;11.036;2023-04-25T05:14:56;13.43;;;6.35;;
5058;SDS011;2548;52.050;11.036;2023-04-25T05:17:46;11.07;;;6.45;;
5058;SDS011;2548;52.050;11.036;2023-04-25T05:20:32;15.77;;;6.40;;
5058;SDS011;2548;52.050;11.036;2023-04-25T05:23:11;12.07;;;5.90;;
5058;SDS011;2548;52.050;11.036;2023-04-25T05:25:42;17.33;;;6.82;;
5058;SDS011;2548;52.050;11.036;2023-04-25T05:28:19;15.35;;;6.30;;
5058;SDS011;2548;52.050;11.036;2023-04-25T05:31:11;22.48;;;6.65;;
5058;SDS011;2548;52.050;11.036;2023-04-25T05:33:59;20.00;;;6.05;;
5058;SDS011;2548;52.050;11.036;2023-04-25T05:36:38;25.27;;;6.32;;
5058;SDS011;2548;52.050;11.036;2023-04-25T05:39:06;21.90;;;7.05;;
5058;SDS011;2548;52.050;11.036;2023-04-25T05:41:52;20.33;;;5.90;;
5058;SDS011;2548;52.050;11.036;2023-04-25T05:44:55;25.77;;;6.45;;
5058;SDS011;2548;52.050;11.036;2023-04-25T05:47:47;15.57;;;6.10;;
5058;SDS011;2548;52.050;11.036;2023-04-25T05:50:19;20.65;;;6.03;;
5058;SDS011;2548;52.050;11.036;2023-04-25T05:52:53;18.17;;;4.50;;
5058;SDS011;2548;52.050;11.036;2023-04-25T05:55:34;15.57;;;4.47;;
5058;SDS011;2548;52.050;11.036;2023-04-25T05:58:15;15.52;;;5.25;;
5058;SDS011;2548;52.050;11.036;2023-04-25T06:00:43;15.45;;;5.32;;
5058;SDS011;2548;52.050;11.036;2023-04-25T06:03:13;18.95;;;5.82;;
5058;SDS011;2548;52.050;11.036;2023-04-25T06:05:41;21.67;;;4.88;;
5058;SDS011;2548;52.050;11.036;2023-04-25T06:08:08;8.77;;;4.28;;
5058;SDS011;2548;52.050;11.036;2023-04-25T06:10:37;21.83;;;4.88;;
5058;SDS011;2548;52.050;11.036;2023-04-25T06:13:08;29.70;;;5.43;;
5058;SDS011;2548;52.050;11.036;2023-04-25T06:15:36;12.82;;;5.32;;
5058;SDS011;2548;52.050;11.036;2023-04-25T06:18:03;32.53;;;7.07;;
5058;SDS011;2548;52.050;11.036;2023-04-25T06:20:32;24.95;;;6.55;;
5058;SDS011;2548;52.050;11.036;2023-04-25T06:23:00;31.42;;;7.00;;
5058;SDS011;2548;52.050;11.036;2023-04-25T06:25:40;26.23;;;7.85;;
5058;SDS011;2548;52.050;11.036;2023-04-25T06:28:07;22.58;;;5.53;;
5058;SDS011;2548;52.050;11.036;2023-04-25T06:30:36;24.63;;;6.63;;
5058;SDS011;2548;52.050;11.036;2023-04-25T06:33:08;22.00;;;5.35;;
5058;SDS011;2548;52.050;11.036;2023-04-25T06:35:37;13.18;;;4.95;;
5058;SDS011;2548;52.050;11.036;2023-04-25T06:38:06;39.70;;;6.70;;
5058;SDS011;2548;52.050;11.036;2023-04-25T06:40:36;15.68;;;5.60;;
5058;SDS011;2548;52.050;11.036;2023-04-25T06:43:03;18.88;;;4.85;;
5058;SDS011;2548;52.050;11.036;2023-04-25T06:45:51;23.67;;;5.65;;
5058;SDS011;2548;52.050;11.036;2023-04-25T06:48:20;24.70;;;6.32;;
5058;SDS011;2548;52.050;11.036;2023-04-25T06:50:49;23.50;;;6.57;;
5058;SDS011;2548;52.050;11.036;2023-04-25T06:53:17;21.73;;;6.30;;
5058;SDS011;2548;52.050;11.036;2023-04-25T06:55:48;29.67;;;5.13;;
5058;SDS011;2548;52.050;11.036;2023-04-25T06:58:18;17.33;;;5.00;;
5058;SDS011;2548;52.050;11.036;2023-04-25T07:01:02;20.90;;;5.35;;
5058;SDS011;2548;52.050;11.036;2023-04-25T07:03:30;24.13;;;5.57;;
5058;SDS011;2548;52.050;11.036;2023-04-25T07:06:03;18.50;;;6.18;;
5058;SDS011;2548;52.050;11.036;2023-04-25T07:08:31;13.52;;;5.15;;
5058;SDS011;2548;52.050;11.036;2023-04-25T07:10:58;23.80;;;6.25;;
5058;SDS011;2548;52.050;11.036;2023-04-25T07:13:26;15.23;;;4.80;;
5058;SDS011;2548;52.050;11.036;2023-04-25T07:15:53;23.58;;;5.80;;
5058;SDS011;2548;52.050;11.036;2023-04-25T07:18:22;16.95;;;5.43;;
5058;SDS011;2548;52.050;11.036;2023-04-25T07:20:50;21.52;;;4.13;;
5058;SDS011;2548;52.050;11.036;2023-04-25T07:23:20;13.77;;;5.63;;
5058;SDS011;2548;52.050;11.036;2023-04-25T07:25:47;20.10;;;4.38;;
5058;SDS011;2548;52.050;11.036;2023-04-25T07:28:19;18.92;;;7.05;;
5058;SDS011;2548;52.050;11.036;2023-04-25T07:30:47;33.45;;;6.78;;
5058;SDS011;2548;52.050;11.036;2023-04-25T07:33:14;24.63;;;6.43;;
5058;SDS011;2548;52.050;11.036;2023-04-25T07:35:42;25.05;;;8.07;;
5058;SDS011;2548;52.050;11.036;2023-04-25T07:38:10;25.58;;;5.50;;
5058;SDS011;2548;52.050;11.036;2023-04-25T07:40:39;14.98;;;4.70;;
5058;SDS011;2548;52.050;11.036;2023-04-25T07:43:08;29.75;;;6.10;;
5058;SDS011;2548;52.050;11.036;2023-04-25T07:45:53;31.23;;;6.55;;
5058;SDS011;2548;52.050;11.036;2023-04-25T07:48:21;24.80;;;9.00;;
5058;SDS011;2548;52.050;11.036;2023-04-25T07:50:51;24.08;;;8.02;;
5058;SDS011;2548;52.050;11.036;2023-04-25T07:53:19;19.20;;;5.90;;
5058;SDS011;2548;52.050;11.036;2023-04-25T07:55:53;27.20;;;8.40;;
5058;SDS011;2548;52.050;11.036;2023-04-25T07:58:21;28.40;;;8.50;;
5058;SDS011;2548;52.050;11.036;2023-04-25T08:00:53;28.60;;;5.60;;
5058;SDS011;2548;52.050;11.036;2023-04-25T08:03:26;34.20;;;7.53;;
5058;SDS011;2548;52.050;11.036;2023-04-25T08:05:55;10.35;;;4.20;;
5058;SDS011;2548;52.050;11.036;2023-04-25T08:08:24;34.50;;;5.45;;
5058;SDS011;2548;52.050;11.036;2023-04-25T08:10:53;23.70;;;4.93;;
5058;SDS011;2548;52.050;11.036;2023-04-25T08:13:21;13.15;;;3.67;;
5058;SDS011;2548;52.050;11.036;2023-04-25T08:15:48;18.25;;;5.65;;
5058;SDS011;2548;52.050;11.036;2023-04-25T08:18:16;16.33;;;4.93;;
5058;SDS011;2548;52.050;11.036;2023-04-25T08:20:45;17.67;;;5.20;;
5058;SDS011;2548;52.050;11.036;2023-04-25T08:23:14;29.80;;;4.55;;
5058;SDS011;2548;52.050;11.036;2023-04-25T08:25:55;17.48;;;3.92;;
5058;SDS011;2548;52.050;11.036;2023-04-25T08:28:26;26.33;;;6.45;;
5058;SDS011;2548;52.050;11.036;2023-04-25T08:30:54;20.05;;;4.65;;
5058;SDS011;2548;52.050;11.036;2023-04-25T08:33:22;23.05;;;4.60;;
5058;SDS011;2548;52.050;11.036;2023-04-25T08:35:59;9.98;;;2.67;;
5058;SDS011;2548;52.050;11.036;2023-04-25T08:38:28;15.50;;;5.30;;
5058;SDS011;2548;52.050;11.036;2023-04-25T08:40:58;14.27;;;3.47;;
5058;SDS011;2548;52.050;11.036;2023-04-25T08:43:27;14.95;;;4.32;;
5058;SDS011;2548;52.050;11.036;2023-04-25T08:45:57;19.05;;;4.07;;
5058;SDS011;2548;52.050;11.036;2023-04-25T08:48:36;13.98;;;4.10;;
5058;SDS011;2548;52.050;11.036;2023-04-25T08:51:04;12.52;;;3.45;;
5058;SDS011;2548;52.050;11.036;2023-04-25T08:53:34;13.65;;;4.38;;
5058;SDS011;2548;52.050;11.036;2023-04-25T08:56:05;21.33;;;3.67;;
5058;SDS011;2548;52.050;11.036;2023-04-25T08:58:35;10.20;;;3.83;;
5058;SDS011;2548;52.050;11.036;2023-04-25T09:01:03;24.30;;;3.58;;
5058;SDS011;2548;52.050;11.036;2023-04-25T09:03:37;17.55;;;4.35;;
5058;SDS011;2548;52.050;11.036;2023-04-25T09:06:05;63.83;;;9.43;;
5058;SDS011;2548;52.050;11.036;2023-04-25T09:08:33;37.33;;;6.30;;
5058;SDS011;2548;52.050;11.036;2023-04-25T09:11:04;26.08;;;5.70;;
5058;SDS011;2548;52.050;11.036;2023-04-25T09:13:32;77.03;;;10.30;;
5058;SDS011;2548;52.050;11.036;2023-04-25T09:16:16;29.55;;;5.95;;
5058;SDS011;2548;52.050;11.036;2023-04-25T09:19:13;21.70;;;6.72;;
5058;SDS011;2548;52.050;11.036;2023-04-25T09:21:49;17.90;;;4.50;;
5058;SDS011;2548;52.050;11.036;2023-04-25T09:24:18;24.00;;;5.30;;
5058;SDS011;2548;52.050;11.036;2023-04-25T09:26:57;35.13;;;9.13;;
5058;SDS011;2548;52.050;11.036;2023-04-25T09:29:29;45.10;;;7.43;;
5058;SDS011;2548;52.050;11.036;2023-04-25T09:34:55;53.22;;;4.68;;
5058;SDS011;2548;52.050;11.036;2023-04-25T09:37:26;11.15;;;2.90;;
5058;SDS011;2548;52.050;11.036;2023-04-25T09:40:26;18.85;;;4.50;;
5058;SDS011;2548;52.050;11.036;2023-04-25T09:43:03;13.63;;;4.00;;
5058;SDS011;2548;52.050;11.036;2023-04-25T09:45:40;10.00;;;3.47;;
5058;SDS011;2548;52.050;11.036;2023-04-25T09:48:11;11.68;;;3.33;;
5058;SDS011;2548;52.050;11.036;2023-04-25T09:50:43;14.00;;;3.50;;
5058;SDS011;2548;52.050;11.036;2023-04-25T09:53:11;10.82;;;3.85;;
5058;SDS011;2548;52.050;11.036;2023-04-25T09:55:53;10.35;;;3.40;;
5058;SDS011;2548;52.050;11.036;2023-04-25T09:58:22;12.75;;;3.28;;
5058;SDS011;2548;52.050;11.036;2023-04-25T10:00:51;11.90;;;3.30;;
5058;SDS011;2548;52.050;11.036;2023-04-25T10:03:32;16.00;;;5.00;;
5058;SDS011;2548;52.050;11.036;2023-04-25T10:06:17;26.70;;;3.33;;
5058;SDS011;2548;52.050;11.036;2023-04-25T10:08:49;9.40;;;3.00;;
5058;SDS011;2548;52.050;11.036;2023-04-25T10:11:21;14.00;;;3.00;;
5058;SDS011;2548;52.050;11.036;2023-04-25T10:13:52;10.52;;;2.72;;
5058;SDS011;2548;52.050;11.036;2023-04-25T10:16:20;21.30;;;2.75;;
5058;SDS011;2548;52.050;11.036;2023-04-25T10:18:49;9.95;;;3.08;;
5058;SDS011;2548;52.050;11.036;2023-04-25T10:21:17;6.32;;;2.58;;
5058;SDS011;2548;52.050;11.036;2023-04-25T10:23:46;8.25;;;2.28;;
5058;SDS011;2548;52.050;11.036;2023-04-25T10:26:14;6.63;;;1.98;;
5058;SDS011;2548;52.050;11.036;2023-04-25T10:31:30;5.60;;;2.03;;
5058;SDS011;2548;52.050;11.036;2023-04-25T10:33:59;6.57;;;2.40;;
5058;SDS011;2548;52.050;11.036;2023-04-25T10:36:27;4.55;;;1.80;;
5058;SDS011;2548;52.050;11.036;2023-04-25T10:39:02;3.08;;;1.60;;
5058;SDS011;2548;52.050;11.036;2023-04-25T10:41:45;5.80;;;2.25;;
5058;SDS011;2548;52.050;11.036;2023-04-25T10:44:15;8.88;;;2.58;;
5058;SDS011;2548;52.050;11.036;2023-04-25T10:46:45;4.40;;;2.38;;
5058;SDS011;2548;52.050;11.036;2023-04-25T10:49:28;14.80;;;2.90;;
5058;SDS011;2548;52.050;11.036;2023-04-25T10:52:12;5.60;;;1.90;;
5058;SDS011;2548;52.050;11.036;2023-04-25T10:54:41;4.30;;;2.25;;
5058;SDS011;2548;52.050;11.036;2023-04-25T10:57:28;4.60;;;3.10;;
5058;SDS011;2548;52.050;11.036;2023-04-25T11:02:45;13.85;;;3.92;;
5058;SDS011;2548;52.050;11.036;2023-04-25T11:05:20;3.47;;;2.47;;
5058;SDS011;2548;52.050;11.036;2023-04-25T11:07:51;10.02;;;3.33;;
5058;SDS011;2548;52.050;11.036;2023-04-25T11:10:20;6.90;;;2.85;;
5058;SDS011;2548;52.050;11.036;2023-04-25T11:12:51;12.45;;;4.10;;
5058;SDS011;2548;52.050;11.036;2023-04-25T11:15:20;10.27;;;4.57;;
5058;SDS011;2548;52.050;11.036;2023-04-25T11:17:47;13.30;;;5.47;;
5058;SDS011;2548;52.050;11.036;2023-04-25T11:20:17;12.02;;;3.50;;
5058;SDS011;2548;52.050;11.036;2023-04-25T11:22:45;11.35;;;5.32;;
5058;SDS011;2548;52.050;11.036;2023-04-25T11:25:14;10.18;;;4.03;;
5058;SDS011;2548;52.050;11.036;2023-04-25T11:27:49;8.90;;;2.75;;
5058;SDS011;2548;52.050;11.036;2023-04-25T11:30:17;6.03;;;3.83;;
5058;SDS011;2548;52.050;11.036;2023-04-25T11:32:47;3.28;;;2.00;;
5058;SDS011;2548;52.050;11.036;2023-04-25T11:35:15;7.70;;;2.67;;
5058;SDS011;2548;52.050;11.036;2023-04-25T11:37:43;5.22;;;2.75;;
5058;SDS011;2548;52.050;11.036;2023-04-25T11:40:11;7.78;;;2.67;;
5058;SDS011;2548;52.050;11.036;2023-04-25T11:42:39;4.60;;;2.38;;
5058;SDS011;2548;52.050;11.036;2023-04-25T11:45:12;7.30;;;2.50;;
5058;SDS011;2548;52.050;11.036;2023-04-25T11:47:42;11.57;;;2.30;;
5058;SDS011;2548;52.050;11.036;2023-04-25T11:50:10;5.30;;;2.17;;
5058;SDS011;2548;52.050;11.036;2023-04-25T11:52:38;6.15;;;1.73;;
5058;SDS011;2548;52.050;11.036;2023-04-25T11:55:06;7.82;;;2.28;;
5058;SDS011;2548;52.050;11.036;2023-04-25T11:57:35;9.60;;;2.90;;
5058;SDS011;2548;52.050;11.036;2023-04-25T12:00:08;3.83;;;2.10;;
5058;SDS011;2548;52.050;11.036;2023-04-25T12:02:39;3.22;;;1.90;;
5058;SDS011;2548;52.050;11.036;2023-04-25T12:05:10;6.47;;;2.25;;
5058;SDS011;2548;52.050;11.036;2023-04-25T12:07:38;5.60;;;1.80;;
5058;SDS011;2548;52.050;11.036;2023-04-25T12:10:07;11.15;;;2.05;;
5058;SDS011;2548;52.050;11.036;2023-04-25T12:12:36;2.65;;;2.10;;
5058;SDS011;2548;52.050;11.036;2023-04-25T12:15:10;4.72;;;1.85;;
5058;SDS011;2548;52.050;11.036;2023-04-25T12:17:44;4.72;;;3.15;;
5058;SDS011;2548;52.050;11.036;2023-04-25T12:20:13;4.45;;;2.00;;
5058;SDS011;2548;52.050;11.036;2023-04-25T12:22:42;6.65;;;2.08;;
5058;SDS011;2548;52.050;11.036;2023-04-25T12:25:11;2.88;;;1.92;;
5058;SDS011;2548;52.050;11.036;2023-04-25T12:27:39;5.10;;;2.47;;
5058;SDS011;2548;52.050;11.036;2023-04-25T12:30:07;3.78;;;2.38;;
5058;SDS011;2548;52.050;11.036;2023-04-25T12:32:36;9.75;;;2.13;;
5058;SDS011;2548;52.050;11.036;2023-04-25T12:35:06;6.60;;;2.67;;
5058;SDS011;2548;52.050;11.036;2023-04-25T12:37:33;10.55;;;2.92;;
5058;SDS011;2548;52.050;11.036;2023-04-25T12:40:01;11.68;;;2.70;;
5058;SDS011;2548;52.050;11.036;2023-04-25T12:42:30;6.10;;;2.53;;
5058;SDS011;2548;52.050;11.036;2023-04-25T12:44:57;5.07;;;2.60;;
5058;SDS011;2548;52.050;11.036;2023-04-25T12:47:25;6.28;;;2.22;;
5058;SDS011;2548;52.050;11.036;2023-04-25T12:49:52;12.32;;;2.90;;
5058;SDS011;2548;52.050;11.036;2023-04-25T12:52:21;8.00;;;2.20;;
5058;SDS011;2548;52.050;11.036;2023-04-25T12:54:48;7.15;;;2.67;;
5058;SDS011;2548;52.050;11.036;2023-04-25T12:57:16;8.85;;;2.33;;
5058;SDS011;2548;52.050;11.036;2023-04-25T12:59:43;7.53;;;1.90;;
5058;SDS011;2548;52.050;11.036;2023-04-25T13:02:11;6.22;;;2.47;;
5058;SDS011;2548;52.050;11.036;2023-04-25T13:04:38;8.60;;;2.95;;
5058;SDS011;2548;52.050;11.036;2023-04-25T13:07:05;8.35;;;2.20;;
5058;SDS011;2548;52.050;11.036;2023-04-25T13:09:34;7.40;;;2.47;;
5058;SDS011;2548;52.050;11.036;2023-04-25T13:12:02;2.80;;;2.63;;
5058;SDS011;2548;52.050;11.036;2023-04-25T13:14:29;6.50;;;3.05;;
5058;SDS011;2548;52.050;11.036;2023-04-25T13:16:57;8.55;;;1.92;;
5058;SDS011;2548;52.050;11.036;2023-04-25T13:19:24;9.00;;;2.83;;
5058;SDS011;2548;52.050;11.036;2023-04-25T13:21:52;5.75;;;3.40;;
5058;SDS011;2548;52.050;11.036;2023-04-25T13:24:19;5.03;;;1.75;;
5058;SDS011;2548;52.050;11.036;2023-04-25T13:26:48;6.13;;;2.17;;
5058;SDS011;2548;52.050;11.036;2023-04-25T13:29:16;9.13;;;2.90;;
5058;SDS011;2548;52.050;11.036;2023-04-25T13:31:43;12.68;;;3.63;;
5058;SDS011;2548;52.050;11.036;2023-04-25T13:34:11;6.55;;;3.10;;
5058;SDS011;2548;52.050;11.036;2023-04-25T13:36:38;23.27;;;6.55;;
5058;SDS011;2548;52.050;11.036;2023-04-25T13:39:06;7.88;;;3.47;;
5058;SDS011;2548;52.050;11.036;2023-04-25T13:41:33;25.92;;;5.50;;
5058;SDS011;2548;52.050;11.036;2023-04-25T13:44:02;14.15;;;2.97;;
5058;SDS011;2548;52.050;11.036;2023-04-25T13:46:29;13.30;;;4.03;;
5058;SDS011;2548;52.050;11.036;2023-04-25T13:48:57;18.00;;;4.40;;
5058;SDS011;2548;52.050;11.036;2023-04-25T13:51:24;57.58;;;14.52;;
5058;SDS011;2548;52.050;11.036;2023-04-25T13:53:52;71.57;;;20.40;;
5058;SDS011;2548;52.050;11.036;2023-04-25T13:56:19;91.00;;;25.38;;
5058;SDS011;2548;52.050;11.036;2023-04-25T13:58:47;45.30;;;16.15;;
5058;SDS011;2548;52.050;11.036;2023-04-25T14:01:16;10.48;;;3.70;;
5058;SDS011;2548;52.050;11.036;2023-04-25T14:03:44;5.93;;;3.40;;
5058;SDS011;2548;52.050;11.036;2023-04-25T14:06:11;2.55;;;2.13;;
5058;SDS011;2548;52.050;11.036;2023-04-25T14:08:39;12.45;;;2.58;;
5058;SDS011;2548;52.050;11.036;2023-04-25T14:11:06;6.07;;;2.30;;
5058;SDS011;2548;52.050;11.036;2023-04-25T14:13:34;3.08;;;1.70;;
5058;SDS011;2548;52.050;11.036;2023-04-25T14:16:01;2.88;;;2.03;;
5058;SDS011;2548;52.050;11.036;2023-04-25T14:18:30;4.78;;;2.15;;
5058;SDS011;2548;52.050;11.036;2023-04-25T14:20:58;6.68;;;2.20;;
5058;SDS011;2548;52.050;11.036;2023-04-25T14:23:26;3.35;;;2.20;;
5058;SDS011;2548;52.050;11.036;2023-04-25T14:25:57;6.78;;;2.90;;
5058;SDS011;2548;52.050;11.036;2023-04-25T14:28:24;6.90;;;2.80;;
5058;SDS011;2548;52.050;11.036;2023-04-25T14:30:52;5.28;;;2.20;;
5058;SDS011;2548;52.050;11.036;2023-04-25T14:33:20;8.23;;;3.08;;
5058;SDS011;2548;52.050;11.036;2023-04-25T14:35:49;5.78;;;2.70;;
5058;SDS011;2548;52.050;11.036;2023-04-25T14:38:17;8.52;;;2.30;;
5058;SDS011;2548;52.050;11.036;2023-04-25T14:40:48;5.75;;;2.08;;
5058;SDS011;2548;52.050;11.036;2023-04-25T14:43:16;3.42;;;2.20;;
5058;SDS011;2548;52.050;11.036;2023-04-25T14:45:44;2.28;;;2.08;;
5058;SDS011;2548;52.050;11.036;2023-04-25T14:48:12;6.78;;;2.20;;
5058;SDS011;2548;52.050;11.036;2023-04-25T14:50:40;4.47;;;2.20;;
5058;SDS011;2548;52.050;11.036;2023-04-25T14:53:09;11.50;;;1.70;;
5058;SDS011;2548;52.050;11.036;2023-04-25T14:55:37;7.80;;;1.10;;
5058;SDS011;2548;52.050;11.036;2023-04-25T14:58:05;2.55;;;1.50;;
5058;SDS011;2548;52.050;11.036;2023-04-25T15:00:33;5.88;;;1.17;;
5058;SDS011;2548;52.050;11.036;2023-04-25T15:03:01;3.00;;;1.17;;
5058;SDS011;2548;52.050;11.036;2023-04-25T15:05:29;2.05;;;1.05;;
5058;SDS011;2548;52.050;11.036;2023-04-25T15:07:57;3.17;;;1.20;;
5058;SDS011;2548;52.050;11.036;2023-04-25T15:10:27;6.38;;;1.27;;
5058;SDS011;2548;52.050;11.036;2023-04-25T15:12:58;4.65;;;1.30;;
5058;SDS011;2548;52.050;11.036;2023-04-25T15:15:26;4.35;;;1.60;;
5058;SDS011;2548;52.050;11.036;2023-04-25T15:17:54;4.15;;;2.28;;
5058;SDS011;2548;52.050;11.036;2023-04-25T15:20:22;4.25;;;2.15;;
5058;SDS011;2548;52.050;11.036;2023-04-25T15:22:59;7.28;;;2.72;;